Perry County Municipal, IN

8:36 AM CDT on July 27, 2016 (GMT -0500)
Barkhamsted | | Change Station

Elev 525 ft 37.97 °N, 86.74 °W | Updated 40 minutes ago

Clear
Clear
81.1 °F
Feels Like 87 °F
N
1.1
Wind Variable Wind from ESE

Today
High -- | Low -- °F
--% Chance of Precip.
Yesterday
High -- | Low -- °F
Precip. -- in
Pressure 30.01 in
Visibility 6.0 miles
Clouds Clear
Heat Index 87 °F
Dew Point 75 °F
Humidity 82%
Rainfall 0.00 in
Snow Depth Not available.
5:45 AM 8:00 PM
Last Quarter, 43% visible
METAR KHNB 271335Z 02003KT 6SM CLR 26/23 A3001 RMK AO1
Pressure 30.01 in
Visibility 6.0 miles
Clouds Clear
Heat Index 87 °F
Dew Point 75 °F
Humidity 82%
Rainfall 0.00 in
Snow Depth Not available.
5:45 AM 8:00 PM
Last Quarter, 43% visible
METAR KHNB 271335Z 02003KT 6SM CLR 26/23 A3001 RMK AO1

10-Day Weather Forecast

Almanac

Astronomy

Jul. 27, 2016 Rise Set
Actual Time
Civil Twilight
Nautical Twilight
Astronomical Twilight
Moon
Length of Visible Light
Length of Day
Tomorrow will be .
, % of the Moon is Illuminated

Today's Extremes

State Highs State Lows

Community

WunderPhotos

Upload Photos

1,927,844 photos uploaded!

WunderBlog® & News

Nearby

Air Quality

  Air Quality AQ Index Pollutant
Not available.

Snow Depth

Station Depth Elevation

Earthquake Activity

City Distance Mag. Time & Date
Minimum magnitude displayed is 2.5.

Coastal Water Temperatures

Place Temperature

Stations

Nearby Weather Stations

Station Location Temp. Windchill Dew Point Humidity Wind Precip. Elev Updated Type
                   

Watches & Warnings

There are currently no watches in effect.